Time,TemperatureF,DewpointF,PressureIn,WindDirection,WindDirectionDegrees,WindSpeedMPH,WindSpeedGustMPH,Humidity,HourlyPrecipIn,Conditions,Clouds,dailyrainin,SolarRadiationWatts/m^2,SoftwareType,DateUTC
2013-06-18 00:01:00,59.0,38.0,-100.00,South,181,1.0,3.0,45,0.00,,,0.00,3.000000,,2013-06-18 08:01:00,
2013-06-18 00:11:00,59.0,38.0,-100.00,South,181,1.0,3.0,45,0.00,,,0.00,3.000000,,2013-06-18 08:11:00,
2013-06-18 00:23:00,59.0,38.0,-100.00,South,181,1.0,3.0,45,0.00,,,0.00,3.000000,,2013-06-18 08:23:00,
2013-06-18 01:43:00,54.0,38.0,-100.00,South,179,1.0,2.0,55,-99.99,,,0.00,0.000000,,2013-06-18 09:43:00,
2013-06-18 01:53:00,54.0,38.0,-100.00,South,179,1.0,2.0,55,-99.99,,,0.00,0.000000,,2013-06-18 09:53:00,
2013-06-18 02:01:00,54.0,38.0,-100.00,South,179,1.0,2.0,55,-99.99,,,0.00,0.000000,,2013-06-18 10:01:00,
2013-06-18 02:11:00,54.0,38.0,-100.00,South,179,1.0,2.0,55,-99.99,,,0.00,0.000000,,2013-06-18 10:11:00,
2013-06-18 02:22:00,54.0,38.0,-100.00,South,179,1.0,2.0,55,-99.99,,,0.00,0.000000,,2013-06-18 10:22:00,
2013-06-18 03:43:00,54.0,35.0,-100.00,SSW,193,0.0,2.0,49,-99.99,,,0.00,0.000000,,2013-06-18 11:43:00,
2013-06-18 03:52:00,54.0,35.0,-100.00,SSW,193,0.0,2.0,49,-99.99,,,0.00,0.000000,,2013-06-18 11:52:00,
2013-06-18 04:01:00,54.0,35.0,-100.00,SSW,193,0.0,2.0,49,-99.99,,,0.00,0.000000,,2013-06-18 12:01:00,
2013-06-18 04:11:00,54.0,35.0,-100.00,SSW,193,0.0,2.0,49,-99.99,,,0.00,0.000000,,2013-06-18 12:11:00,
2013-06-18 04:22:00,54.0,35.0,-100.00,SSW,193,0.0,2.0,49,-99.99,,,0.00,0.000000,,2013-06-18 12:22:00,
2013-06-18 04:43:00,55.0,47.0,-100.00,SSE,163,1.0,4.0,72,0.01,,,0.00,0.000000,,2013-06-18 12:43:00,
2013-06-18 04:52:00,55.0,47.0,-100.00,SSE,163,1.0,4.0,72,0.01,,,0.00,0.000000,,2013-06-18 12:52:00,
2013-06-18 05:02:00,55.0,47.0,-100.00,SSE,163,1.0,4.0,72,0.01,,,0.00,0.000000,,2013-06-18 13:02:00,
2013-06-18 05:11:00,55.0,47.0,-100.00,SSE,163,1.0,4.0,72,0.01,,,0.00,0.000000,,2013-06-18 13:11:00,
2013-06-18 05:22:00,55.0,47.0,-100.00,SSE,163,1.0,4.0,72,0.01,,,0.00,0.000000,,2013-06-18 13:22:00,
2013-06-18 05:43:00,50.0,49.0,-100.00,South,183,1.0,3.0,96,0.03,,,0.04,1.000000,,2013-06-18 13:43:00,
2013-06-18 05:53:00,50.0,49.0,-100.00,South,183,1.0,3.0,96,0.03,,,0.04,1.000000,,2013-06-18 13:53:00,
2013-06-18 06:02:00,50.0,49.0,-100.00,South,183,1.0,3.0,96,0.03,,,0.04,1.000000,,2013-06-18 14:02:00,
2013-06-18 06:11:00,50.0,49.0,-100.00,South,183,1.0,3.0,96,0.03,,,0.04,1.000000,,2013-06-18 14:11:00,
2013-06-18 06:22:00,50.0,49.0,-100.00,South,183,1.0,3.0,96,0.03,,,0.04,1.000000,,2013-06-18 14:22:00,
2013-06-18 06:43:00,48.0,48.0,-100.00,SSE,164,1.0,3.0,99,0.01,,,0.05,11.000000,,2013-06-18 14:43:00,
2013-06-18 06:53:00,48.0,48.0,-100.00,SSE,164,1.0,3.0,99,0.01,,,0.05,11.000000,,2013-06-18 14:53:00,
2013-06-18 07:02:00,48.0,48.0,-100.00,SSE,164,1.0,3.0,99,0.01,,,0.05,11.000000,,2013-06-18 15:02:00,
2013-06-18 07:11:00,48.0,48.0,-100.00,SSE,164,1.0,3.0,99,0.01,,,0.05,11.000000,,2013-06-18 15:11:00,
2013-06-18 07:22:00,48.0,48.0,-100.00,SSE,164,1.0,3.0,99,0.01,,,0.05,11.000000,,2013-06-18 15:22:00,
2013-06-18 07:43:00,50.0,50.0,-100.00,SSE,163,0.0,2.0,99,-99.99,,,0.03,20.000000,,2013-06-18 15:43:00,
2013-06-18 07:53:00,50.0,50.0,-100.00,SSE,163,0.0,2.0,99,-99.99,,,0.03,20.000000,,2013-06-18 15:53:00,
2013-06-18 08:01:00,50.0,50.0,-100.00,SSE,163,0.0,2.0,99,-99.99,,,0.03,20.000000,,2013-06-18 16:01:00,
2013-06-18 08:11:00,50.0,50.0,-100.00,SSE,163,0.0,2.0,99,-99.99,,,0.03,20.000000,,2013-06-18 16:11:00,
2013-06-18 08:22:00,50.0,50.0,-100.00,SSE,163,0.0,2.0,99,-99.99,,,0.03,20.000000,,2013-06-18 16:22:00,
2013-06-18 08:43:00,48.0,48.0,-100.00,SSE,168,1.0,3.0,98,-99.99,,,0.01,32.000000,,2013-06-18 16:43:00,
2013-06-18 08:53:00,48.0,48.0,-100.00,SSE,168,1.0,3.0,98,-99.99,,,0.01,32.000000,,2013-06-18 16:53:00,
2013-06-18 09:02:00,48.0,48.0,-100.00,SSE,168,1.0,3.0,98,-99.99,,,0.01,32.000000,,2013-06-18 17:02:00,
2013-06-18 09:11:00,48.0,48.0,-100.00,SSE,168,1.0,3.0,98,-99.99,,,0.01,32.000000,,2013-06-18 17:11:00,
2013-06-18 09:22:00,48.0,48.0,-100.00,SSE,168,1.0,3.0,98,-99.99,,,0.01,32.000000,,2013-06-18 17:22:00,
2013-06-18 09:43:00,50.0,48.0,-100.00,South,177,1.0,4.0,93,-99.99,,,0.00,66.000000,,2013-06-18 17:43:00,
2013-06-18 09:53:00,50.0,48.0,-100.00,South,177,1.0,4.0,93,-99.99,,,0.00,66.000000,,2013-06-18 17:53:00,
2013-06-18 10:01:00,50.0,48.0,-100.00,South,177,1.0,4.0,93,-99.99,,,0.00,66.000000,,2013-06-18 18:01:00,
2013-06-18 10:11:00,50.0,48.0,-100.00,South,177,1.0,4.0,93,-99.99,,,0.00,66.000000,,2013-06-18 18:11:00,
2013-06-18 10:22:00,50.0,48.0,-100.00,South,177,1.0,4.0,93,-99.99,,,0.00,66.000000,,2013-06-18 18:22:00,
2013-06-18 10:42:00,50.0,47.0,-100.00,South,176,2.0,3.0,89,0.00,,,0.00,115.000000,,2013-06-18 18:42:00,
2013-06-18 10:53:00,50.0,47.0,-100.00,South,176,2.0,3.0,89,0.00,,,0.00,115.000000,,2013-06-18 18:53:00,
2013-06-18 11:01:00,50.0,47.0,-100.00,South,176,2.0,3.0,89,0.00,,,0.00,115.000000,,2013-06-18 19:01:00,
2013-06-18 11:11:00,50.0,47.0,-100.00,South,176,2.0,3.0,89,0.00,,,0.00,115.000000,,2013-06-18 19:11:00,
2013-06-18 11:22:00,50.0,47.0,-100.00,South,176,2.0,3.0,89,0.00,,,0.00,115.000000,,2013-06-18 19:22:00,
2013-06-18 11:43:00,54.0,50.0,-100.00,South,172,1.0,3.0,88,0.00,,,0.00,225.000000,,2013-06-18 19:43:00,
2013-06-18 11:52:00,54.0,50.0,-100.00,South,172,1.0,3.0,88,0.00,,,0.00,225.000000,,2013-06-18 19:52:00,
2013-06-18 12:01:00,54.0,50.0,-100.00,South,172,1.0,3.0,88,0.00,,,0.00,225.000000,,2013-06-18 20:01:00,
2013-06-18 12:11:00,54.0,50.0,-100.00,South,172,1.0,3.0,88,0.00,,,0.00,225.000000,,2013-06-18 20:11:00,
2013-06-18 12:22:00,54.0,50.0,-100.00,South,172,1.0,3.0,88,0.00,,,0.00,225.000000,,2013-06-18 20:22:00,
2013-06-18 12:43:00,57.0,54.0,-100.00,South,181,1.0,3.0,90,0.00,,,0.00,233.000000,,2013-06-18 20:43:00,
2013-06-18 12:52:00,57.0,54.0,-100.00,South,181,1.0,3.0,90,0.00,,,0.00,233.000000,,2013-06-18 20:52:00,
2013-06-18 13:01:00,57.0,54.0,-100.00,South,181,1.0,3.0,90,0.00,,,0.00,233.000000,,2013-06-18 21:01:00,
2013-06-18 13:11:00,57.0,54.0,-100.00,South,181,1.0,3.0,90,0.00,,,0.00,233.000000,,2013-06-18 21:11:00,
2013-06-18 13:43:00,61.0,51.0,-100.00,SW,235,1.0,3.0,71,-99.99,,,-99.99,214.000000,,2013-06-18 21:43:00,
2013-06-18 13:52:00,61.0,51.0,-100.00,SW,235,1.0,3.0,71,-99.99,,,-99.99,214.000000,,2013-06-18 21:52:00,
2013-06-18 14:01:00,61.0,51.0,-100.00,SW,235,1.0,3.0,71,-99.99,,,-99.99,214.000000,,2013-06-18 22:01:00,
2013-06-18 14:11:00,61.0,51.0,-100.00,SW,235,1.0,3.0,71,-99.99,,,-99.99,214.000000,,2013-06-18 22:11:00,
2013-06-18 14:22:00,61.0,51.0,-100.00,SW,235,1.0,3.0,71,-99.99,,,-99.99,214.000000,,2013-06-18 22:22:00,
2013-06-18 14:43:00,64.0,44.0,-100.00,SSE,156,3.0,6.0,47,0.00,,,0.00,355.000000,,2013-06-18 22:43:00,
2013-06-18 14:53:00,64.0,44.0,-100.00,SSE,156,3.0,6.0,47,0.00,,,0.00,355.000000,,2013-06-18 22:53:00,
2013-06-18 15:01:00,64.0,44.0,-100.00,SSE,156,3.0,6.0,47,0.00,,,0.00,355.000000,,2013-06-18 23:01:00,
2013-06-18 15:11:00,64.0,44.0,-100.00,SSE,156,3.0,6.0,47,0.00,,,0.00,355.000000,,2013-06-18 23:11:00,
2013-06-18 15:23:00,64.0,44.0,-100.00,SSE,156,3.0,6.0,47,0.00,,,0.00,355.000000,,2013-06-18 23:23:00,
2013-06-18 15:48:00,64.0,46.0,-100.00,SE,146,3.0,6.0,51,0.00,,,0.00,209.000000,,2013-06-18 23:48:00,
2013-06-18 15:53:00,64.0,46.0,-100.00,SE,146,3.0,6.0,51,0.00,,,0.00,209.000000,,2013-06-18 23:53:00,
2013-06-18 16:01:00,64.0,46.0,-100.00,SE,146,3.0,6.0,51,0.00,,,0.00,209.000000,,2013-06-19 00:01:00,
2013-06-18 16:11:00,64.0,46.0,-100.00,SE,146,3.0,6.0,51,0.00,,,0.00,209.000000,,2013-06-19 00:11:00,
2013-06-18 16:22:00,64.0,46.0,-100.00,SE,146,3.0,6.0,51,0.00,,,0.00,209.000000,,2013-06-19 00:22:00,
2013-06-18 16:53:00,66.0,49.0,-100.00,South,172,2.0,6.0,54,0.00,,,0.00,214.000000,,2013-06-19 00:53:00,
2013-06-18 17:01:00,66.0,49.0,-100.00,South,172,2.0,6.0,54,0.00,,,0.00,214.000000,,2013-06-19 01:01:00,
2013-06-18 17:11:00,66.0,49.0,-100.00,South,172,2.0,6.0,54,0.00,,,0.00,214.000000,,2013-06-19 01:11:00,
2013-06-18 17:22:00,66.0,49.0,-100.00,South,172,2.0,6.0,54,0.00,,,0.00,214.000000,,2013-06-19 01:22:00,
2013-06-18 17:43:00,64.0,48.0,-100.00,South,179,2.0,4.0,55,0.00,,,0.00,186.000000,,2013-06-19 01:43:00,
2013-06-18 17:53:00,64.0,48.0,-100.00,South,179,2.0,4.0,55,0.00,,,0.00,186.000000,,2013-06-19 01:53:00,
2013-06-18 18:01:00,64.0,48.0,-100.00,South,179,2.0,4.0,55,0.00,,,0.00,186.000000,,2013-06-19 02:01:00,
2013-06-18 18:11:00,64.0,48.0,-100.00,South,179,2.0,4.0,55,0.00,,,0.00,186.000000,,2013-06-19 02:11:00,
2013-06-18 18:21:00,64.0,48.0,-100.00,South,179,2.0,4.0,55,0.00,,,0.00,186.000000,,2013-06-19 02:21:00,
2013-06-18 18:42:00,70.0,45.0,-100.00,SSE,149,3.0,8.0,41,0.00,,,0.00,469.000000,,2013-06-19 02:42:00,
2013-06-18 18:52:00,70.0,45.0,-100.00,SSE,149,3.0,8.0,41,0.00,,,0.00,469.000000,,2013-06-19 02:52:00,
2013-06-18 19:01:00,70.0,45.0,-100.00,SSE,149,3.0,8.0,41,0.00,,,0.00,469.000000,,2013-06-19 03:01:00,
2013-06-18 19:11:00,70.0,45.0,-100.00,SSE,149,3.0,8.0,41,0.00,,,0.00,469.000000,,2013-06-19 03:11:00,
2013-06-18 19:21:00,70.0,45.0,-100.00,SSE,149,3.0,8.0,41,0.00,,,0.00,469.000000,,2013-06-19 03:21:00,
2013-06-18 19:43:00,68.0,44.0,-100.00,SSE,153,4.0,7.0,42,0.00,,,0.00,400.000000,,2013-06-19 03:43:00,
2013-06-18 19:52:00,68.0,44.0,-100.00,SSE,153,4.0,7.0,42,0.00,,,0.00,400.000000,,2013-06-19 03:52:00,
2013-06-18 20:01:00,68.0,44.0,-100.00,SSE,153,4.0,7.0,42,0.00,,,0.00,400.000000,,2013-06-19 04:01:00,
2013-06-18 20:11:00,68.0,44.0,-100.00,SSE,153,4.0,7.0,42,0.00,,,0.00,400.000000,,2013-06-19 04:11:00,
2013-06-18 20:22:00,68.0,44.0,-100.00,SSE,153,4.0,7.0,42,0.00,,,0.00,400.000000,,2013-06-19 04:22:00,
2013-06-18 20:43:00,68.0,44.0,-100.00,SSE,148,5.0,8.0,42,0.00,,,0.00,305.000000,,2013-06-19 04:43:00,
2013-06-18 20:53:00,68.0,44.0,-100.00,SSE,148,5.0,8.0,42,0.00,,,0.00,305.000000,,2013-06-19 04:53:00,
2013-06-18 21:01:00,68.0,44.0,-100.00,SSE,148,5.0,8.0,42,0.00,,,0.00,305.000000,,2013-06-19 05:01:00,
2013-06-18 21:11:00,68.0,44.0,-100.00,SSE,148,5.0,8.0,42,0.00,,,0.00,305.000000,,2013-06-19 05:11:00,
2013-06-18 21:22:00,68.0,44.0,-100.00,SSE,148,5.0,8.0,42,0.00,,,0.00,305.000000,,2013-06-19 05:22:00,
2013-06-18 21:43:00,64.0,56.0,-100.00,SE,131,2.0,4.0,73,0.00,,,0.00,39.000000,,2013-06-19 05:43:00,
2013-06-18 21:52:00,64.0,56.0,-100.00,SE,131,2.0,4.0,73,0.00,,,0.00,39.000000,,2013-06-19 05:52:00,
2013-06-18 22:01:00,64.0,56.0,-100.00,SE,131,2.0,4.0,73,0.00,,,0.00,39.000000,,2013-06-19 06:01:00,
2013-06-18 22:11:00,64.0,56.0,-100.00,SE,131,2.0,4.0,73,0.00,,,0.00,39.000000,,2013-06-19 06:11:00,
2013-06-18 22:21:00,64.0,56.0,-100.00,SE,131,2.0,4.0,73,0.00,,,0.00,39.000000,,2013-06-19 06:21:00,
2013-06-18 22:43:00,57.0,50.0,-100.00,SSE,156,3.0,5.0,77,0.00,,,0.00,24.000000,,2013-06-19 06:43:00,
2013-06-18 22:52:00,57.0,50.0,-100.00,SSE,156,3.0,5.0,77,0.00,,,0.00,24.000000,,2013-06-19 06:52:00,
2013-06-18 23:01:00,57.0,50.0,-100.00,SSE,156,3.0,5.0,77,0.00,,,0.00,24.000000,,2013-06-19 07:01:00,
2013-06-18 23:11:00,57.0,50.0,-100.00,SSE,156,3.0,5.0,77,0.00,,,0.00,24.000000,,2013-06-19 07:11:00,
2013-06-18 23:22:00,57.0,50.0,-100.00,SSE,156,3.0,5.0,77,0.00,,,0.00,24.000000,,2013-06-19 07:22:00,
2013-06-18 23:43:00,55.0,50.0,-100.00,West,277,0.0,2.0,83,0.00,,,0.00,2.000000,,2013-06-19 07:43:00,
2013-06-18 23:53:00,55.0,50.0,-100.00,West,277,0.0,2.0,83,0.00,,,0.00,2.000000,,2013-06-19 07:53:00,